Sim-Planet VA

Sim-Planet Nouvel Horizon. By: Anthony Pay
Since 2020.




 METAR ET TAF INFORMATION
METAR FOR TFFR
ADDS - METARS form results

(1035 UTC 24 July 2021)
Data provider http://aviationweather.gov/metar/data/
 
METAR text: TFFR 241030Z AUTO 12006KT 9999 ///TCU 26/24 Q1014
Conditions at: TFFR (LE RAIZET , GP) observed 1030 UTC 24 July 2021
Temperature: 26.0°C (79°F)
Dewpoint: 24.0°C (75°F) [RH = 89%]
Pressure (altimeter): 29.94 inches Hg (1014.0 mb)
Winds: from the ESE (120 degrees) at 7 MPH (6 knots; 3.1 m/s)
Visibility: 6 or more miles (10+ km)
Ceiling: unknown
Clouds: missing
Weather: no significant weather observed at this time

METAR text: TFFR 241000Z AUTO 11009KT 9999 FEW019/// SCT031/// BKN038/// ///CB 26/24 Q1014
Conditions at: TFFR (LE RAIZET , GP) observed 1000 UTC 24 July 2021
Temperature: 26.0°C (79°F)
Dewpoint: 24.0°C (75°F) [RH = 89%]
Pressure (altimeter): 29.94 inches Hg (1014.0 mb)
Winds: from the ESE (110 degrees) at 10 MPH (9 knots; 4.6 m/s)
Visibility: 6 or more miles (10+ km)
Ceiling: 3800 feet AGL
Clouds: few clouds at 1900 feet AGL
scattered clouds at 3100 feet AGL
broken clouds at 3800 feet AGL
Weather: no significant weather observed at this time

 AÉROPORT DE AÉROPORT

 INFORMATIONS DE PISTE
Piste 12 Longueur de la piste 11499 ft Largeur de la piste 148 ft
Élévation de la piste 5 ft Seuil de la piste déplacés 1312 ft Runway heading 101
Piste 30 Longueur de la piste 11499 ft Largeur de la piste 148 ft
Élévation de la piste 32 ft Seuil de la piste déplacés 820 ft Runway heading 281

 AÉROPORT FRÉQUENCES
Type APP Nom RAIZET APP Féquence 121.3 MHZ
Type ATIS Nom ATIS Féquence 127.6 MHZ
Type GND Nom GND Féquence 121.85 MHZ
Type TWR Nom RAIZET TWR Féquence 118.4 MHZ

 SIDA DE NAVIGATION
Type VOR-DME Nom Pointe A Pitre Féquence 112900 KHZ
Type NDB Nom Pointe A Pitre Féquence 385 KHZ